Time;durP1;ratioP1;P1;durP2;ratioP2;P2;SDS_P1;SDS_P2;PMS_P1;PMS_P2;Temp;Humidity;BMP_temperature;BMP_pressure;BME280_temperature;BME280_humidity;BME280_pressure;Samples;Min_cycle;Max_cycle;Signal;HPM_P1;HPM_P2
2021/07/04 00:01:10;;;;;;;;;;;;;;;22.34;58.55;100871.75;2037968;29;4093;-38
2021/07/04 00:02:37;;;;;;;;;;;;;;;22.34;58.56;100879.47;2039162;28;3893;-35
2021/07/04 00:04:04;;;;;;;;;;;;;;;22.34;58.67;100888.03;2040409;29;4077;-36
2021/07/04 00:05:31;;;;;;;;;;;;;;;22.34;58.52;100888.03;2038539;28;4052;-34
2021/07/04 00:06:58;;;;;;;;;;;;;;;22.33;58.60;100883.50;2036685;28;4271;-38
2021/07/04 00:08:25;;;;;;;;;;;;;;;22.33;58.67;100881.50;2040327;28;3920;-35
2021/07/04 00:09:52;;;;;;;;;;;;;;;22.34;58.50;100879.47;2036475;28;4250;-37
2021/07/04 00:11:19;;;;;;;;;;;;;;;22.32;58.49;100876.97;2040446;28;3886;-33
2021/07/04 00:12:45;;;;;;;;;;;;;;;22.33;58.57;100881.50;2036942;28;4043;-33
2021/07/04 00:14:12;;;;;;;;;;;;;;;22.32;58.34;100876.97;2039409;29;4182;-40
2021/07/04 00:15:39;;;;;;;;;;;;;;;22.32;58.43;100879.81;2038191;28;4003;-33
2021/07/04 00:17:06;;;;;;;;;;;;;;;22.33;58.42;100880.63;2041779;28;4268;-32
2021/07/04 00:18:33;;;;;;;;;;;;;;;22.33;58.38;100877.78;2039035;29;3933;-31
2021/07/04 00:19:59;;;;;;;;;;;;;;;22.33;58.48;100869.25;2040626;28;4082;-31
2021/07/04 00:21:26;;;;;;;;;;;;;;;22.33;58.51;100880.63;2042804;28;3946;-35
2021/07/04 00:22:57;;;;;;;;;;;;;;;22.33;58.47;100874.94;2042110;28;4058;-36
2021/07/04 00:24:23;;;;;;;;;;;;;;;22.33;58.43;100880.63;2041269;28;3903;-32
2021/07/04 00:25:50;;;;;;;;;;;;;;;22.33;58.46;100883.50;2040986;29;4084;-34
2021/07/04 00:27:17;;;;;;;;;;;;;;;22.33;58.44;100878.66;2039244;29;3961;-33
2021/07/04 00:28:44;;;;;;;;;;;;;;;22.32;58.49;100879.81;2041084;29;4293;-32
2021/07/04 00:30:11;;;;;;;;;;;;;;;22.32;58.47;100876.97;2038546;29;4236;-33
2021/07/04 00:31:37;;;;;;;;;;;;;;;22.33;58.58;100877.78;2042986;28;4109;-31
2021/07/04 00:33:04;;;;;;;;;;;;;;;22.32;58.56;100879.81;2040660;28;4242;-35
2021/07/04 00:34:30;;;;;;;;;;;;;;;22.32;58.55;100879.81;2041497;29;4047;-33
2021/07/04 00:35:57;;;;;;;;;;;;;;;22.31;58.54;100875.31;2045545;28;4269;-34
2021/07/04 00:37:24;;;;;;;;;;;;;;;22.33;58.46;100880.63;2045570;29;4142;-33
2021/07/04 00:38:50;;;;;;;;;;;;;;;22.32;58.49;100870.44;2043783;28;4032;-33
2021/07/04 00:40:16;;;;;;;;;;;;;;;22.32;58.40;100876.13;2040973;29;3938;-34
2021/07/04 00:41:43;;;;;;;;;;;;;;;22.32;58.37;100873.28;2042521;29;3893;-32
2021/07/04 00:43:09;;;;;;;;;;;;;;;22.31;58.48;100869.63;2040579;29;5351;-32
2021/07/04 00:44:35;;;;;;;;;;;;;;;22.31;58.54;100869.63;2039659;28;3940;-31
2021/07/04 00:46:01;;;;;;;;;;;;;;;22.32;58.48;100868.41;2040085;28;4265;-30
2021/07/04 00:47:27;;;;;;;;;;;;;;;22.32;58.35;100867.59;2040205;28;3925;-34
2021/07/04 00:48:54;;;;;;;;;;;;;;;22.32;58.35;100870.44;2040097;29;4068;-30
2021/07/04 00:50:20;;;;;;;;;;;;;;;22.32;58.44;100879.81;2040920;29;4097;-29
2021/07/04 00:51:46;;;;;;;;;;;;;;;22.32;58.41;100879.00;2040565;28;4273;-34
2021/07/04 00:53:12;;;;;;;;;;;;;;;22.32;58.43;100865.56;2043782;28;4180;-35
2021/07/04 00:54:39;;;;;;;;;;;;;;;22.31;58.14;100869.63;2044110;28;4819;-34
2021/07/04 00:56:06;;;;;;;;;;;;;;;22.32;58.47;100865.56;2044220;28;4324;-36
2021/07/04 00:57:33;;;;;;;;;;;;;;;22.31;58.28;100872.47;2044023;28;4005;-36
2021/07/04 00:58:59;;;;;;;;;;;;;;;22.32;58.42;100861.88;2043803;28;4090;-34
2021/07/04 01:00:26;;;;;;;;;;;;;;;22.32;58.30;100861.88;2045151;28;4037;-36
2021/07/04 01:01:57;;;;;;;;;;;;;;;22.32;58.27;100868.41;2044003;28;4222;-31
2021/07/04 01:03:24;;;;;;;;;;;;;;;22.33;58.16;100857.84;2045161;28;3945;-33
2021/07/04 01:04:51;;;;;;;;;;;;;;;22.32;58.39;100861.88;2043778;28;4270;-35
2021/07/04 01:06:18;;;;;;;;;;;;;;;22.32;58.45;100861.88;2043367;28;3955;-32
2021/07/04 01:07:45;;;;;;;;;;;;;;;22.32;58.40;100861.88;2043682;28;4058;-31
2021/07/04 01:09:11;;;;;;;;;;;;;;;22.32;58.44;100861.88;2044862;28;4102;-36
2021/07/04 01:10:37;;;;;;;;;;;;;;;22.32;58.44;100867.59;2044425;28;4200;-32
2021/07/04 01:12:04;;;;;;;;;;;;;;;22.33;58.54;100866.38;2043044;28;4038;-33
2021/07/04 01:13:30;;;;;;;;;;;;;;;22.32;58.39;100861.88;2043163;28;5086;-35
2021/07/04 01:14:57;;;;;;;;;;;;;;;22.33;58.49;100866.38;2043380;28;4228;-33
2021/07/04 01:16:23;;;;;;;;;;;;;;;22.32;58.50;100861.88;2045624;28;4930;-32
2021/07/04 01:18:11;;;;;;;;;;;;;;;22.32;58.54;100859.88;2037255;28;5129;-31
2021/07/04 01:19:36;;;;;;;;;;;;;;;22.32;58.55;100859.03;2045329;28;4083;-36
2021/07/04 01:21:02;;;;;;;;;;;;;;;22.32;58.59;100853.34;2044661;28;4061;-33
2021/07/04 01:22:30;;;;;;;;;;;;;;;22.33;58.56;100849.28;2045465;28;4187;-35
2021/07/04 01:23:57;;;;;;;;;;;;;;;22.33;58.59;100855.84;2045664;28;4536;-35
2021/07/04 01:25:23;;;;;;;;;;;;;;;22.32;58.40;100851.31;2045244;28;3938;-35
2021/07/04 01:26:50;;;;;;;;;;;;;;;22.33;58.54;100849.28;2043876;28;6190;-35
2021/07/04 01:28:17;;;;;;;;;;;;;;;22.34;58.58;100856.66;2044590;28;5287;-32
2021/07/04 01:29:44;;;;;;;;;;;;;;;22.33;58.63;100852.13;2044743;28;3945;-33
2021/07/04 01:31:11;;;;;;;;;;;;;;;22.33;58.60;100844.44;2042983;28;4746;-31
2021/07/04 01:32:37;;;;;;;;;;;;;;;22.33;58.58;100846.44;2042748;28;4005;-34
2021/07/04 01:34:05;;;;;;;;;;;;;;;22.33;58.61;100840.75;2044941;28;4238;-33
2021/07/04 01:35:31;;;;;;;;;;;;;;;22.33;58.58;100847.28;2045739;28;3953;-36
2021/07/04 01:36:57;;;;;;;;;;;;;;;22.33;58.61;100846.44;2043806;28;5095;-30
2021/07/04 01:38:23;;;;;;;;;;;;;;;22.33;58.65;100844.44;2045651;28;4126;-33
2021/07/04 01:39:50;;;;;;;;;;;;;;;22.35;58.58;100841.22;2044772;28;4251;-31
2021/07/04 01:41:16;;;;;;;;;;;;;;;22.34;58.61;100842.41;2044400;28;3977;-34
2021/07/04 01:42:42;;;;;;;;;;;;;;;22.34;58.53;100845.25;2045349;28;4033;-31
2021/07/04 01:44:10;;;;;;;;;;;;;;;22.33;58.70;100841.59;2044404;28;4268;-33
2021/07/04 01:45:36;;;;;;;;;;;;;;;22.33;58.71;100841.59;2045569;28;4109;-34
2021/07/04 01:47:02;;;;;;;;;;;;;;;22.33;58.58;100841.59;2044836;28;4258;-32
2021/07/04 01:48:29;;;;;;;;;;;;;;;22.34;58.66;100840.38;2044047;28;3969;-30
2021/07/04 01:49:56;;;;;;;;;;;;;;;22.34;58.67;100843.25;2043144;28;4077;-33
2021/07/04 01:51:23;;;;;;;;;;;;;;;22.35;58.67;100838.38;2045879;28;3965;-35
2021/07/04 01:52:49;;;;;;;;;;;;;;;22.35;58.63;100846.91;2045216;28;4083;-35
2021/07/04 01:54:16;;;;;;;;;;;;;;;22.34;58.79;100837.53;2045069;28;4018;-33
2021/07/04 01:55:43;;;;;;;;;;;;;;;22.35;58.83;100836.34;2057721;28;4160;-32
2021/07/04 01:57:13;;;;;;;;;;;;;;;22.36;58.82;100842.88;2060144;28;4273;-32
2021/07/04 01:58:39;;;;;;;;;;;;;;;22.35;58.91;100838.38;2059077;28;3932;-34
2021/07/04 02:00:06;;;;;;;;;;;;;;;22.35;58.79;100836.34;2054059;28;4243;-36
2021/07/04 02:01:32;;;;;;;;;;;;;;;22.35;58.92;100832.66;2056939;28;3949;-35
2021/07/04 02:02:58;;;;;;;;;;;;;;;22.36;58.88;100837.19;2060872;28;4226;-32
2021/07/04 02:04:24;;;;;;;;;;;;;;;22.36;58.83;100831.50;2059172;28;3946;-29
2021/07/04 02:05:51;;;;;;;;;;;;;;;22.35;59.03;100830.63;2058418;28;4199;-30
2021/07/04 02:07:18;;;;;;;;;;;;;;;22.36;58.94;100840.03;2060835;28;3958;-33
2021/07/04 02:08:45;;;;;;;;;;;;;;;22.36;58.93;100840.03;2058668;28;4201;-35
2021/07/04 02:10:11;;;;;;;;;;;;;;;22.35;58.94;100838.38;2056688;28;3927;-32
2021/07/04 02:11:38;;;;;;;;;;;;;;;22.36;58.89;100840.03;2059276;28;3997;-32
2021/07/04 02:13:05;;;;;;;;;;;;;;;22.37;58.86;100841.69;2060332;28;4255;-35
2021/07/04 02:14:31;;;;;;;;;;;;;;;22.37;58.85;100844.53;2058714;28;3942;-31
2021/07/04 02:15:58;;;;;;;;;;;;;;;22.36;58.93;100840.88;2060446;28;4252;-32
2021/07/04 02:17:25;;;;;;;;;;;;;;;22.36;58.86;100840.03;2059139;28;4045;-35
2021/07/04 02:18:52;;;;;;;;;;;;;;;22.37;58.91;100847.38;2057709;28;4044;-34
2021/07/04 02:20:19;;;;;;;;;;;;;;;22.35;58.93;100842.03;2059971;28;3982;-32
2021/07/04 02:21:46;;;;;;;;;;;;;;;22.36;58.96;100842.88;2059653;28;4045;-35
2021/07/04 02:23:13;;;;;;;;;;;;;;;22.36;58.97;100846.56;2060180;28;3908;-33
2021/07/04 02:24:40;;;;;;;;;;;;;;;22.36;59.05;100845.75;2058234;28;4118;-33
2021/07/04 02:26:07;;;;;;;;;;;;;;;22.36;59.06;100849.41;2054236;28;4087;-33
2021/07/04 02:27:33;;;;;;;;;;;;;;;22.37;58.97;100847.38;2057701;28;3926;-31
2021/07/04 02:29:00;;;;;;;;;;;;;;;22.37;59.06;100847.38;2055805;28;4070;-32
2021/07/04 02:30:26;;;;;;;;;;;;;;;22.37;59.11;100844.53;2057607;28;3900;-35
2021/07/04 02:31:52;;;;;;;;;;;;;;;22.37;59.04;100851.06;2060415;28;4244;-33
2021/07/04 02:33:19;;;;;;;;;;;;;;;22.37;59.13;100853.09;2058166;28;4119;-34
2021/07/04 02:34:46;;;;;;;;;;;;;;;22.36;59.13;100843.72;2059068;28;4240;-36
2021/07/04 02:36:12;;;;;;;;;;;;;;;22.37;59.09;100847.38;2057407;28;4007;-32
2021/07/04 02:37:38;;;;;;;;;;;;;;;22.37;59.03;100845.38;2060598;28;3969;-31
2021/07/04 02:39:04;;;;;;;;;;;;;;;22.38;59.00;100849.03;2060316;28;4269;-32
2021/07/04 02:40:30;;;;;;;;;;;;;;;22.38;59.19;100849.03;2058811;28;3978;-32
2021/07/04 02:41:57;;;;;;;;;;;;;;;22.37;59.01;100847.38;2057732;28;4241;-31
2021/07/04 02:43:23;;;;;;;;;;;;;;;22.38;59.05;100843.34;2057220;28;3951;-32
2021/07/04 02:44:50;;;;;;;;;;;;;;;22.36;59.03;100846.56;2059114;28;4209;-34
2021/07/04 02:46:16;;;;;;;;;;;;;;;22.38;59.13;100844.16;2058356;28;4150;-34
2021/07/04 02:47:43;;;;;;;;;;;;;;;22.38;59.13;100849.03;2056384;28;3895;-31
2021/07/04 02:49:10;;;;;;;;;;;;;;;22.37;59.13;100853.91;2059017;28;4264;-34
2021/07/04 02:50:37;;;;;;;;;;;;;;;22.37;59.07;100853.91;2056027;28;3949;-31
2021/07/04 02:52:03;;;;;;;;;;;;;;;22.37;59.19;100858.78;2060194;28;4208;-33
2021/07/04 02:53:30;;;;;;;;;;;;;;;22.37;59.28;100848.22;2059833;28;3932;-37
2021/07/04 02:54:57;;;;;;;;;;;;;;;22.38;59.13;100851.88;2059317;28;4085;-30
2021/07/04 02:56:24;;;;;;;;;;;;;;;22.37;59.09;100851.06;2056247;28;3979;-32
2021/07/04 02:57:51;;;;;;;;;;;;;;;22.38;59.02;100849.84;2058065;28;4398;-34
2021/07/04 02:59:18;;;;;;;;;;;;;;;22.38;59.04;100851.88;2060556;28;3990;-35
2021/07/04 03:00:45;;;;;;;;;;;;;;;22.38;59.20;100854.72;2056236;28;4060;-30
2021/07/04 03:02:12;;;;;;;;;;;;;;;22.37;59.19;100853.91;2058585;28;3927;-31
2021/07/04 03:03:39;;;;;;;;;;;;;;;22.37;59.05;100851.06;2060028;28;3983;-35
2021/07/04 03:05:05;;;;;;;;;;;;;;;22.37;59.02;100842.50;2059524;28;4242;-35
2021/07/04 03:06:31;;;;;;;;;;;;;;;22.37;59.18;100851.06;2059815;28;3975;-34
2021/07/04 03:07:58;;;;;;;;;;;;;;;22.38;59.26;100849.84;2056551;28;4214;-38
2021/07/04 03:09:24;;;;;;;;;;;;;;;22.37;59.14;100848.22;2060048;28;4045;-32
2021/07/04 03:10:50;;;;;;;;;;;;;;;22.38;59.03;100846.19;2055134;28;4069;-34
2021/07/04 03:12:17;;;;;;;;;;;;;;;22.37;58.98;100848.22;2060163;28;3899;-34
2021/07/04 03:13:44;;;;;;;;;;;;;;;22.37;59.01;100850.25;2057376;28;3944;-35
2021/07/04 03:15:11;;;;;;;;;;;;;;;22.38;59.21;100849.03;2056351;28;4255;-32
2021/07/04 03:16:37;;;;;;;;;;;;;;;22.38;58.93;100852.72;2059642;28;3944;-30
2021/07/04 03:18:04;;;;;;;;;;;;;;;22.37;59.06;100853.09;2059757;28;4283;-34
2021/07/04 03:19:30;;;;;;;;;;;;;;;22.37;59.11;100842.50;2060001;28;3973;-35
2021/07/04 03:20:56;;;;;;;;;;;;;;;22.38;59.11;100846.19;2056155;28;4237;-31
2021/07/04 03:22:23;;;;;;;;;;;;;;;22.37;59.06;100848.22;2058251;28;3927;-31
2021/07/04 03:23:49;;;;;;;;;;;;;;;22.38;59.12;100851.88;2057492;28;4039;-34
2021/07/04 03:25:16;;;;;;;;;;;;;;;22.38;58.98;100851.88;2058270;28;3943;-29
2021/07/04 03:26:42;;;;;;;;;;;;;;;22.37;59.02;100850.25;2058190;28;3885;-35
2021/07/04 03:28:08;;;;;;;;;;;;;;;22.37;59.08;100850.25;2057338;28;4217;-32
2021/07/04 03:29:34;;;;;;;;;;;;;;;22.37;59.02;100847.38;2056261;28;3991;-31
2021/07/04 03:31:01;;;;;;;;;;;;;;;22.37;59.05;100848.22;2057561;28;4202;-33
2021/07/04 03:32:27;;;;;;;;;;;;;;;22.38;58.98;100849.03;2057618;28;3989;-35
2021/07/04 03:33:54;;;;;;;;;;;;;;;22.37;58.85;100848.22;2055787;28;4287;-33
2021/07/04 03:35:20;;;;;;;;;;;;;;;22.37;58.88;100847.38;2060869;28;5338;-33
2021/07/04 03:36:47;;;;;;;;;;;;;;;22.37;58.91;100853.09;2058525;28;4216;-35
2021/07/04 03:38:13;;;;;;;;;;;;;;;22.37;58.90;100844.53;2058478;28;3979;-35
2021/07/04 03:39:40;;;;;;;;;;;;;;;22.36;58.92;100846.56;2059422;28;3876;-31
2021/07/04 03:41:06;;;;;;;;;;;;;;;22.36;58.95;100842.88;2056389;28;4973;-33
2021/07/04 03:42:33;;;;;;;;;;;;;;;22.36;58.78;100846.56;2060117;28;4680;-32
2021/07/04 03:44:00;;;;;;;;;;;;;;;22.37;58.81;100844.53;2058330;28;4088;-32
2021/07/04 03:45:26;;;;;;;;;;;;;;;22.37;58.88;100835.97;2058411;28;3965;-33
2021/07/04 03:46:53;;;;;;;;;;;;;;;22.36;58.72;100843.72;2058514;28;4069;-33
2021/07/04 03:48:20;;;;;;;;;;;;;;;22.37;58.87;100841.69;2056603;28;3966;-33
2021/07/04 03:49:47;;;;;;;;;;;;;;;22.36;58.73;100840.88;2057604;28;5141;-35
2021/07/04 03:51:13;;;;;;;;;;;;;;;22.37;58.76;100841.69;2057161;28;3927;-33
2021/07/04 03:52:39;;;;;;;;;;;;;;;22.37;58.91;100847.38;2056693;28;3940;-35
2021/07/04 03:54:06;;;;;;;;;;;;;;;22.36;58.95;100845.75;2056536;28;4079;-38
2021/07/04 03:55:33;;;;;;;;;;;;;;;22.37;58.94;100844.53;2058058;28;3939;-33
2021/07/04 03:57:20;;;;;;;;;;;;;;;22.36;58.93;100849.41;2057055;28;4223;-33
2021/07/04 03:58:46;;;;;;;;;;;;;;;22.37;59.00;100847.38;2057044;28;4046;-35
2021/07/04 04:00:12;;;;;;;;;;;;;;;22.37;58.91;100845.38;2058777;28;3977;-34
2021/07/04 04:01:38;;;;;;;;;;;;;;;22.37;59.02;100842.50;2056989;28;4349;-35
2021/07/04 04:03:05;;;;;;;;;;;;;;;22.38;59.04;100844.16;2058964;28;4104;-32
2021/07/04 04:04:32;;;;;;;;;;;;;;;22.37;59.07;100842.50;2059618;28;4101;-35
2021/07/04 04:05:58;;;;;;;;;;;;;;;22.37;58.97;100835.97;2061008;28;4070;-37
2021/07/04 04:07:25;;;;;;;;;;;;;;;22.37;59.05;100848.22;2055907;28;3923;-30
2021/07/04 04:08:51;;;;;;;;;;;;;;;22.37;59.03;100839.66;2054972;28;4275;-33
2021/07/04 04:10:18;;;;;;;;;;;;;;;22.38;59.04;100847.00;2061925;28;3879;-32
2021/07/04 04:11:44;;;;;;;;;;;;;;;22.38;59.19;100849.03;2057819;28;3959;-31
2021/07/04 04:13:10;;;;;;;;;;;;;;;22.38;59.23;100840.47;2061011;28;4321;-36
2021/07/04 04:14:37;;;;;;;;;;;;;;;22.38;59.14;100837.63;2060009;28;3943;-34
2021/07/04 04:16:03;;;;;;;;;;;;;;;22.38;59.19;100846.19;2057020;28;4422;-32
2021/07/04 04:17:29;;;;;;;;;;;;;;;22.37;59.08;100841.69;2059414;28;3960;-39
2021/07/04 04:18:56;;;;;;;;;;;;;;;22.36;59.02;100838.00;2058699;28;4027;-35
2021/07/04 04:20:23;;;;;;;;;;;;;;;22.36;58.94;100838.00;2058312;28;3935;-39
2021/07/04 04:21:49;;;;;;;;;;;;;;;22.35;58.90;100829.81;2060310;28;4249;-33
2021/07/04 04:23:15;;;;;;;;;;;;;;;22.35;58.98;100844.06;2052759;28;4021;-39
2021/07/04 04:24:42;;;;;;;;;;;;;;;22.34;59.01;100840.38;2057991;28;3901;-36
2021/07/04 04:26:09;;;;;;;;;;;;;;;22.34;58.84;100839.56;2057571;28;4282;-37
2021/07/04 04:27:36;;;;;;;;;;;;;;;22.35;58.96;100846.91;2060006;28;3956;-40
2021/07/04 04:29:03;;;;;;;;;;;;;;;22.34;58.82;100842.41;2059844;28;4225;-35
2021/07/04 04:30:30;;;;;;;;;;;;;;;22.34;58.94;100836.72;2059932;28;4168;-35
2021/07/04 04:31:57;;;;;;;;;;;;;;;22.34;58.78;100842.41;2058791;28;4041;-35
2021/07/04 04:33:24;;;;;;;;;;;;;;;22.33;58.86;100840.75;2060671;28;3958;-35
2021/07/04 04:34:50;;;;;;;;;;;;;;;22.34;58.79;100848.13;2058385;28;4223;-33
2021/07/04 04:36:17;;;;;;;;;;;;;;;22.33;58.81;100841.59;2059412;28;4056;-33
2021/07/04 04:37:44;;;;;;;;;;;;;;;22.34;58.63;100850.97;2061362;28;3912;-39
2021/07/04 04:39:11;;;;;;;;;;;;;;;22.34;58.70;100850.97;2059770;28;4263;-38
2021/07/04 04:40:37;;;;;;;;;;;;;;;22.34;58.69;100845.25;2057347;28;4130;-35
2021/07/04 04:42:04;;;;;;;;;;;;;;;22.34;58.80;100848.13;2058244;28;4081;-34
2021/07/04 04:43:33;;;;;;;;;;;;;;;22.33;58.78;100840.75;2060975;28;4134;-37
2021/07/04 04:44:59;;;;;;;;;;;;;;;22.34;58.70;100850.97;2057167;28;4197;-37
2021/07/04 04:46:25;;;;;;;;;;;;;;;22.33;58.71;100847.28;2057768;28;3954;-32
2021/07/04 04:47:52;;;;;;;;;;;;;;;22.33;58.73;100847.28;2060117;28;4230;-34
2021/07/04 04:49:19;;;;;;;;;;;;;;;22.33;58.77;100844.44;2060444;28;4034;-36
2021/07/04 04:50:45;;;;;;;;;;;;;;;22.34;58.61;100848.13;2057262;28;4030;-35
2021/07/04 04:52:12;;;;;;;;;;;;;;;22.33;58.83;100847.28;2053854;28;3942;-36
2021/07/04 04:53:39;;;;;;;;;;;;;;;22.33;58.74;100846.44;2059646;28;3913;-36
2021/07/04 04:55:05;;;;;;;;;;;;;;;22.33;58.85;100850.16;2059018;28;4242;-34
2021/07/04 04:56:32;;;;;;;;;;;;;;;22.33;58.68;100849.28;2057293;28;3907;-39
2021/07/04 04:57:58;;;;;;;;;;;;;;;22.34;58.68;100848.13;2056331;28;4256;-37
2021/07/04 04:59:24;;;;;;;;;;;;;;;22.34;58.70;100848.13;2055803;28;4051;-39
2021/07/04 05:00:50;;;;;;;;;;;;;;;22.33;58.74;100847.28;2057153;28;4045;-35
2021/07/04 05:02:16;;;;;;;;;;;;;;;22.34;58.72;100848.13;2060599;28;3946;-33
2021/07/04 05:03:42;;;;;;;;;;;;;;;22.34;58.85;100842.41;2056242;28;3968;-33
2021/07/04 05:05:09;;;;;;;;;;;;;;;22.33;58.76;100841.59;2052340;28;4254;-37
2021/07/04 05:06:35;;;;;;;;;;;;;;;22.34;58.88;100845.25;2059775;28;3923;-34
2021/07/04 05:08:01;;;;;;;;;;;;;;;22.34;58.71;100846.09;2059753;28;4060;-33
2021/07/04 05:09:27;;;;;;;;;;;;;;;22.34;58.87;100845.25;2054238;28;3937;-35
2021/07/04 05:10:53;;;;;;;;;;;;;;;22.35;58.77;100844.06;2060129;28;4031;-35
2021/07/04 05:12:19;;;;;;;;;;;;;;;22.35;58.75;100846.91;2061318;28;3942;-31
2021/07/04 05:13:45;;;;;;;;;;;;;;;22.35;58.92;100847.72;2055035;28;4211;-36
2021/07/04 05:15:12;;;;;;;;;;;;;;;22.36;58.83;100848.59;2059633;28;3940;-32
2021/07/04 05:16:38;;;;;;;;;;;;;;;22.36;58.83;100851.44;2059302;28;3928;-31
2021/07/04 05:18:05;;;;;;;;;;;;;;;22.36;58.86;100846.56;2059715;28;4194;-35
2021/07/04 05:19:32;;;;;;;;;;;;;;;22.36;59.05;100852.25;2060041;28;3942;-36
2021/07/04 05:20:59;;;;;;;;;;;;;;;22.37;59.04;100856.75;2057998;28;4083;-36
2021/07/04 05:22:26;;;;;;;;;;;;;;;22.37;59.03;100859.63;2058087;28;4028;-32
2021/07/04 05:23:52;;;;;;;;;;;;;;;22.38;59.16;100857.59;2060731;28;4042;-34
2021/07/04 05:25:18;;;;;;;;;;;;;;;22.38;59.19;100861.25;2058239;28;4137;-33
2021/07/04 05:26:45;;;;;;;;;;;;;;;22.39;59.10;100856.41;2059421;28;4045;-33
2021/07/04 05:28:12;;;;;;;;;;;;;;;22.38;59.29;100854.72;2058040;28;3952;-33
2021/07/04 05:29:38;;;;;;;;;;;;;;;22.39;59.25;100862.13;2059343;28;4055;-32
2021/07/04 05:31:04;;;;;;;;;;;;;;;22.39;59.33;100856.41;2057868;28;4238;-33
2021/07/04 05:32:30;;;;;;;;;;;;;;;22.40;59.40;100856.03;2061155;28;3997;-38
2021/07/04 05:33:57;;;;;;;;;;;;;;;22.41;59.60;100854.88;2057282;28;5140;-33
2021/07/04 05:35:24;;;;;;;;;;;;;;;22.41;59.76;100854.00;2055293;28;3922;-36
2021/07/04 05:36:51;;;;;;;;;;;;;;;22.43;59.75;100855.31;2057521;28;4027;-36
2021/07/04 05:38:21;;;;;;;;;;;;;;;22.43;59.80;100857.34;2059352;28;4050;-35
2021/07/04 05:39:48;;;;;;;;;;;;;;;22.43;59.88;100861.00;2055869;28;5329;-34
2021/07/04 05:41:15;;;;;;;;;;;;;;;22.43;59.83;100854.47;2060034;28;4122;-34
2021/07/04 05:42:42;;;;;;;;;;;;;;;22.44;60.24;100861.84;2060755;28;3918;-38
2021/07/04 05:44:10;;;;;;;;;;;;;;;22.44;60.11;100861.84;2057655;28;4260;-35
2021/07/04 05:45:37;;;;;;;;;;;;;;;22.44;60.25;100853.28;2058729;28;3904;-30
2021/07/04 05:47:04;;;;;;;;;;;;;;;22.44;60.24;100851.28;2057249;28;4277;-33
2021/07/04 05:48:31;;;;;;;;;;;;;;;22.44;60.40;100854.13;2056993;28;4097;-30
2021/07/04 05:49:58;;;;;;;;;;;;;;;22.46;60.30;100856.59;2060589;28;4120;-35
2021/07/04 05:51:24;;;;;;;;;;;;;;;22.45;60.44;100850.06;2059286;28;4038;-36
2021/07/04 05:52:50;;;;;;;;;;;;;;;22.45;60.48;100850.06;2060269;28;4183;-32
2021/07/04 05:54:17;;;;;;;;;;;;;;;22.46;60.58;100853.75;2059936;28;3931;-33
2021/07/04 05:55:43;;;;;;;;;;;;;;;22.48;60.57;100847.69;2059838;28;4177;-35
2021/07/04 05:57:10;;;;;;;;;;;;;;;22.46;60.58;100854.56;2058705;28;4278;-34
2021/07/04 05:58:36;;;;;;;;;;;;;;;22.48;60.57;100857.09;2058912;28;4373;-36
2021/07/04 06:00:02;;;;;;;;;;;;;;;22.48;60.82;100854.22;2058797;28;4237;-32
2021/07/04 06:01:29;;;;;;;;;;;;;;;22.48;60.85;100854.22;2057354;28;3954;-34
2021/07/04 06:02:55;;;;;;;;;;;;;;;22.48;60.69;100859.94;2058208;28;4283;-36
2021/07/04 06:04:22;;;;;;;;;;;;;;;22.47;60.77;100855.44;2053788;28;4190;-38
2021/07/04 06:05:49;;;;;;;;;;;;;;;22.47;60.78;100852.59;2058742;28;4399;-35
2021/07/04 06:07:16;;;;;;;;;;;;;;;22.47;60.85;100852.59;2057700;28;3962;-31
2021/07/04 06:08:42;;;;;;;;;;;;;;;22.48;60.88;100851.38;2059367;28;4011;-33
2021/07/04 06:10:09;;;;;;;;;;;;;;;22.48;60.98;100851.38;2058275;28;4214;-35
2021/07/04 06:11:35;;;;;;;;;;;;;;;22.49;60.90;100855.06;2059675;28;3959;-33
2021/07/04 06:13:01;;;;;;;;;;;;;;;22.48;61.10;100854.22;2058585;28;4039;-34
2021/07/04 06:14:28;;;;;;;;;;;;;;;22.49;61.04;100852.19;2056846;28;4072;-34
2021/07/04 06:15:55;;;;;;;;;;;;;;;22.50;60.95;100856.72;2060046;28;4243;-34
2021/07/04 06:17:22;;;;;;;;;;;;;;;22.49;61.13;100849.34;2059285;28;3911;-31
2021/07/04 06:18:48;;;;;;;;;;;;;;;22.49;61.08;100850.19;2056619;28;4037;-32
2021/07/04 06:20:14;;;;;;;;;;;;;;;22.49;61.14;100853.03;2057625;28;3926;-36
2021/07/04 06:21:40;;;;;;;;;;;;;;;22.50;61.29;100857.56;2059947;28;3937;-31
2021/07/04 06:23:07;;;;;;;;;;;;;;;22.51;61.22;100844.94;2059732;28;4073;-34
2021/07/04 06:24:33;;;;;;;;;;;;;;;22.51;61.27;100853.50;2058477;28;3939;-29
2021/07/04 06:26:00;;;;;;;;;;;;;;;22.51;61.32;100846.97;2059449;28;4246;-35
2021/07/04 06:27:27;;;;;;;;;;;;;;;22.51;61.30;100849.81;2058264;28;3975;-37
2021/07/04 06:28:53;;;;;;;;;;;;;;;22.50;61.40;100849.00;2058225;28;4044;-36
2021/07/04 06:30:19;;;;;;;;;;;;;;;22.51;61.34;100852.69;2057567;28;3944;-36
2021/07/04 06:31:45;;;;;;;;;;;;;;;22.51;61.34;100846.97;2056759;28;3951;-35
2021/07/04 06:33:11;;;;;;;;;;;;;;;22.51;61.33;100853.50;2059855;28;4256;-35
2021/07/04 06:34:38;;;;;;;;;;;;;;;22.51;61.31;100853.50;2059265;28;3972;-32
2021/07/04 06:36:04;;;;;;;;;;;;;;;22.51;61.26;100852.69;2059780;28;4249;-36
2021/07/04 06:37:30;;;;;;;;;;;;;;;22.51;61.34;100853.50;2058888;28;4096;-38
2021/07/04 06:38:56;;;;;;;;;;;;;;;22.51;61.31;100852.69;2059066;28;4207;-31
2021/07/04 06:40:23;;;;;;;;;;;;;;;22.51;61.21;100844.94;2057915;28;3982;-36
2021/07/04 06:41:49;;;;;;;;;;;;;;;22.51;61.12;100844.13;2057436;28;4061;-34
2021/07/04 06:43:15;;;;;;;;;;;;;;;22.51;61.35;100846.97;2059524;28;4573;-32
2021/07/04 06:44:41;;;;;;;;;;;;;;;22.52;61.26;100845.78;2059477;28;3957;-32
2021/07/04 06:46:08;;;;;;;;;;;;;;;22.51;61.24;100844.94;2058436;28;4440;-36
2021/07/04 06:47:35;;;;;;;;;;;;;;;22.51;61.14;100839.25;2058418;28;3980;-33
2021/07/04 06:49:02;;;;;;;;;;;;;;;22.52;61.19;100843.75;2060349;28;4230;-36
2021/07/04 06:50:28;;;;;;;;;;;;;;;22.53;61.24;100838.91;2058583;28;3939;-32
2021/07/04 06:51:55;;;;;;;;;;;;;;;22.53;61.33;100838.91;2059477;28;4219;-33
2021/07/04 06:53:22;;;;;;;;;;;;;;;22.52;61.41;100835.19;2059501;28;3946;-35
2021/07/04 06:54:48;;;;;;;;;;;;;;;22.53;61.19;100838.91;2059888;28;4194;-38
2021/07/04 06:56:14;;;;;;;;;;;;;;;22.53;61.27;100833.19;2057479;28;3911;-31
2021/07/04 06:57:42;;;;;;;;;;;;;;;22.53;61.37;100838.91;2057121;28;6088;-34
2021/07/04 06:59:09;;;;;;;;;;;;;;;22.53;61.13;100831.16;2055444;28;4281;-33
2021/07/04 07:00:35;;;;;;;;;;;;;;;22.53;61.21;100830.34;2056993;28;4110;-35
2021/07/04 07:02:01;;;;;;;;;;;;;;;22.53;61.28;100834.00;2057857;28;4046;-36
2021/07/04 07:03:28;;;;;;;;;;;;;;;22.54;61.21;100829.13;2059405;28;4057;-34
2021/07/04 07:04:55;;;;;;;;;;;;;;;22.54;61.33;100837.69;2057812;28;4060;-35
2021/07/04 07:06:22;;;;;;;;;;;;;;;22.55;61.19;100833.63;2059316;28;3948;-34
2021/07/04 07:07:48;;;;;;;;;;;;;;;22.56;61.19;100841.00;2047433;28;4240;-34
2021/07/04 07:09:13;;;;;;;;;;;;;;;22.56;61.33;100836.13;2057094;28;4553;-36
2021/07/04 07:10:40;;;;;;;;;;;;;;;22.55;61.34;100836.47;2058610;28;3988;-32
2021/07/04 07:12:06;;;;;;;;;;;;;;;22.55;61.30;100834.50;2059930;28;4055;-32
2021/07/04 07:13:33;;;;;;;;;;;;;;;22.55;61.34;100840.19;2059769;28;3971;-34
2021/07/04 07:15:00;;;;;;;;;;;;;;;22.56;61.53;100827.59;2058126;28;4053;-32
2021/07/04 07:16:27;;;;;;;;;;;;;;;22.56;61.51;100829.59;2058866;28;4001;-36
2021/07/04 07:17:54;;;;;;;;;;;;;;;22.57;61.51;100832.06;2058034;28;4038;-31
2021/07/04 07:19:19;;;;;;;;;;;;;;;22.57;61.53;100834.09;2051803;28;3962;-32
2021/07/04 07:20:46;;;;;;;;;;;;;;;22.57;61.58;100823.53;2056565;28;5051;-35
2021/07/04 07:22:13;;;;;;;;;;;;;;;22.58;61.53;100832.94;2059087;28;4177;-37
2021/07/04 07:23:39;;;;;;;;;;;;;;;22.58;61.65;100827.22;2051719;28;3917;-31
2021/07/04 07:25:05;;;;;;;;;;;;;;;22.58;61.62;100824.38;2057798;28;4064;-35
2021/07/04 07:26:32;;;;;;;;;;;;;;;22.57;61.42;100829.22;2057996;28;3935;-37
2021/07/04 07:27:59;;;;;;;;;;;;;;;22.57;61.46;100817.81;2057526;28;4192;-37
2021/07/04 07:29:29;;;;;;;;;;;;;;;22.57;61.43;100822.69;2055943;28;3959;-32
2021/07/04 07:30:56;;;;;;;;;;;;;;;22.57;61.35;100817.81;2057234;28;4232;-31
2021/07/04 07:32:23;;;;;;;;;;;;;;;22.59;61.40;100824.00;2053495;28;3925;-34